Time;durP1;ratioP1;P1;durP2;ratioP2;P2;SDS_P1;SDS_P2;PMS_P1;PMS_P2;Temp;Humidity;BMP_temperature;BMP_pressure;BME280_temperature;BME280_humidity;BME280_pressure;Samples;Min_cycle;Max_cycle;Signal;HPM_P1;HPM_P2
2023/12/22 00:00:40;;;;;;;1999.90;999.90;;;;;;;-1.33;84.67;94869.94;5075368;28;20049;-62
2023/12/22 00:03:08;;;;;;;1999.90;999.90;;;;;;;-1.32;84.44;94866.47;5075433;28;20088;-63
2023/12/22 00:05:35;;;;;;;1999.90;999.90;;;;;;;-1.28;84.62;94854.47;5075242;28;20504;-63
2023/12/22 00:08:02;;;;;;;1999.90;999.90;;;;;;;-1.28;84.99;94845.03;5075098;28;20139;-62
2023/12/22 00:10:29;;;;;;;1999.90;999.90;;;;;;;-1.39;85.32;94844.38;5075251;28;20051;-61
2023/12/22 00:12:56;;;;;;;1999.90;999.90;;;;;;;-1.41;85.82;94851.28;5075176;28;20049;-61
2023/12/22 00:15:23;;;;;;;1999.90;999.90;;;;;;;-1.44;85.52;94848.75;5075069;28;20055;-64
2023/12/22 00:17:52;;;;;;;1999.90;999.90;;;;;;;-1.40;85.08;94838.41;5074960;28;20061;-61
2023/12/22 00:20:19;;;;;;;1999.90;999.90;;;;;;;-1.40;84.32;94833.28;5074928;28;20048;-64
2023/12/22 00:22:46;;;;;;;1999.90;999.90;;;;;;;-1.38;85.44;94842.66;5075003;28;20080;-64
2023/12/22 00:25:13;;;;;;;1999.90;999.90;;;;;;;-1.49;87.43;94828.31;5074884;28;20131;-63
2023/12/22 00:27:40;;;;;;;1999.90;999.90;;;;;;;-1.48;86.86;94832.56;5074712;28;20048;-64
2023/12/22 00:30:08;;;;;;;1999.90;999.90;;;;;;;-1.60;86.39;94822.56;5074627;28;20552;-62
2023/12/22 00:32:35;;;;;;;1999.90;999.90;;;;;;;-1.57;86.66;94846.41;5074638;28;20053;-63
2023/12/22 00:35:04;;;;;;;1999.90;999.90;;;;;;;-1.50;86.49;94846.31;5074769;28;20059;-61
2023/12/22 00:37:31;;;;;;;1999.90;999.90;;;;;;;-1.44;85.97;94851.31;5074835;28;20055;-62
2023/12/22 00:39:58;;;;;;;1999.90;999.90;;;;;;;-1.40;85.75;94858.94;5074593;28;20049;-61
2023/12/22 00:42:25;;;;;;;1999.90;999.90;;;;;;;-1.34;86.41;94842.59;5074362;28;20085;-62
2023/12/22 00:44:53;;;;;;;1999.90;999.90;;;;;;;-1.32;87.30;94835.69;5074529;28;20052;-63
2023/12/22 00:47:20;;;;;;;1999.90;999.90;;;;;;;-1.38;86.94;94845.22;5074336;28;20497;-61
2023/12/22 00:49:47;;;;;;;1999.90;999.90;;;;;;;-1.37;86.68;94844.34;5074314;28;20094;-65
2023/12/22 00:52:15;;;;;;;1999.90;999.90;;;;;;;-1.40;85.75;94830.72;5074436;28;20059;-62
2023/12/22 00:54:42;;;;;;;1999.90;999.90;;;;;;;-1.41;84.87;94817.94;5074283;28;20044;-65
2023/12/22 00:57:09;;;;;;;1999.90;999.90;;;;;;;-1.45;84.88;94813.69;5074069;28;20102;-61
2023/12/22 00:59:36;;;;;;;1999.90;999.90;;;;;;;-1.46;85.01;94814.59;5074383;28;20087;-64
2023/12/22 01:02:03;;;;;;;1999.90;999.90;;;;;;;-1.43;84.94;94820.53;5074423;28;20055;-62
2023/12/22 01:04:30;;;;;;;1999.90;999.90;;;;;;;-1.42;84.21;94805.94;5074392;28;20048;-63
2023/12/22 01:06:58;;;;;;;1999.90;999.90;;;;;;;-1.48;83.91;94806.91;5074076;28;20048;-60
2023/12/22 01:09:26;;;;;;;1999.90;999.90;;;;;;;-1.52;83.43;94807.84;5074077;28;20102;-64
2023/12/22 01:11:53;;;;;;;1999.90;999.90;;;;;;;-1.49;82.76;94802.66;5073925;28;20060;-61
2023/12/22 01:14:20;;;;;;;1999.90;999.90;;;;;;;-1.55;83.26;94806.19;5073984;28;20462;-65
2023/12/22 01:16:47;;;;;;;1999.90;999.90;;;;;;;-1.58;83.47;94802.84;5073728;28;20055;-64
2023/12/22 01:19:14;;;;;;;1999.90;999.90;;;;;;;-1.54;83.40;94797.63;5073821;28;20544;-65
2023/12/22 01:21:41;;;;;;;1999.90;999.90;;;;;;;-1.51;83.45;94791.59;5073869;28;20079;-65
2023/12/22 01:24:08;;;;;;;1999.90;999.90;;;;;;;-1.55;83.46;94795.94;5073737;28;20048;-61
2023/12/22 01:26:37;;;;;;;1999.90;999.90;;;;;;;-1.54;83.72;94786.50;5073878;28;20080;-64
2023/12/22 01:29:04;;;;;;;1999.90;999.90;;;;;;;-1.54;83.92;94778.81;5073717;28;20049;-64
2023/12/22 01:31:31;;;;;;;1999.90;999.90;;;;;;;-1.54;83.91;94769.41;5073553;28;20052;-65
2023/12/22 01:33:58;;;;;;;1999.90;999.90;;;;;;;-1.53;83.46;94765.13;5073481;28;20140;-61
2023/12/22 01:36:25;;;;;;;1999.90;999.90;;;;;;;-1.54;83.64;94760.84;5073434;28;20554;-65
2023/12/22 01:38:52;;;;;;;1999.90;999.90;;;;;;;-1.51;83.65;94752.28;5073389;28;20044;-63
2023/12/22 01:41:19;;;;;;;1999.90;999.90;;;;;;;-1.52;84.70;94743.72;5073722;28;20078;-62
2023/12/22 01:43:48;;;;;;;1999.90;999.90;;;;;;;-1.53;86.45;94742.06;5073622;28;20040;-64
2023/12/22 01:46:15;;;;;;;1999.90;999.90;;;;;;;-1.52;86.51;94730.91;5073408;28;20444;-63
2023/12/22 01:48:42;;;;;;;1999.90;999.90;;;;;;;-1.51;86.62;94732.59;5073206;28;20165;-62
2023/12/22 01:51:10;;;;;;;1999.90;999.90;;;;;;;-1.43;86.78;94727.31;5073316;28;20056;-61
2023/12/22 01:53:37;;;;;;;1999.90;999.90;;;;;;;-1.39;86.58;94721.25;5072725;28;20140;-61
2023/12/22 01:56:05;;;;;;;1999.90;999.90;;;;;;;-1.33;86.39;94720.28;5073286;28;20048;-64
2023/12/22 01:58:36;;;;;;;1999.90;999.90;;;;;;;-1.30;85.62;94715.06;5073083;28;20056;-63
2023/12/22 02:01:04;;;;;;;;;;;;;;;-1.29;85.05;94714.22;5073807;28;20040;-63
2023/12/22 02:03:32;;;;;;;1999.90;999.90;;;;;;;-1.34;84.40;94716.03;5073208;28;19925;-64
2023/12/22 02:05:59;;;;;;;1999.90;999.90;;;;;;;-1.32;84.54;94716.84;5073213;28;20047;-61
2023/12/22 02:08:28;;;;;;;1999.90;999.90;;;;;;;-1.28;85.63;94719.31;5073099;28;20045;-63
2023/12/22 02:10:55;;;;;;;1999.90;999.90;;;;;;;-1.29;85.51;94704.78;5073144;28;20049;-64
2023/12/22 02:13:22;;;;;;;1999.90;999.90;;;;;;;-1.24;85.46;94703.88;5073089;28;20048;-61
2023/12/22 02:15:57;;;;;;;1999.90;999.90;;;;;;;-1.23;85.46;94705.53;5073090;28;20105;-66
2023/12/22 02:18:33;;;;;;;1999.90;999.90;;;;;;;-1.20;84.92;94697.78;5072883;28;20080;-65
2023/12/22 02:21:00;;;;;;;1999.90;999.90;;;;;;;-1.19;84.72;94691.75;5073094;28;20085;-61
2023/12/22 02:23:28;;;;;;;1999.90;999.90;;;;;;;-1.17;84.70;94684.88;5072922;28;20490;-65
2023/12/22 02:26:03;;;;;;;1999.90;999.90;;;;;;;-1.17;84.64;94683.16;5072998;28;20131;-61
2023/12/22 02:28:31;;;;;;;1999.90;999.90;;;;;;;-1.16;85.01;94686.56;5072859;28;20048;-65
2023/12/22 02:31:05;;;;;;;1999.90;999.90;;;;;;;-1.16;85.27;94676.31;5072992;28;20052;-62
2023/12/22 02:33:35;;;;;;;1999.90;999.90;;;;;;;-1.11;85.32;94676.22;5072928;28;20076;-63
2023/12/22 02:36:07;;;;;;;1999.90;999.90;;;;;;;-1.10;85.10;94677.88;5072902;28;20139;-62
2023/12/22 02:38:37;;;;;;;1999.90;999.90;;;;;;;-1.10;85.18;94675.31;5072869;28;20087;-63
2023/12/22 02:41:05;;;;;;;1999.90;999.90;;;;;;;-1.16;85.56;94682.28;5072913;28;20053;-64
2023/12/22 02:43:33;;;;;;;1999.90;999.90;;;;;;;-1.12;86.17;94684.78;5072828;28;20040;-63
2023/12/22 02:46:00;;;;;;;1999.90;999.90;;;;;;;-1.11;86.03;94683.91;5072765;28;20051;-63
2023/12/22 02:48:27;;;;;;;1999.90;999.90;;;;;;;-1.08;86.22;94688.97;5072706;28;20053;-63
2023/12/22 02:50:54;;;;;;;1999.90;999.90;;;;;;;-1.06;86.20;94687.19;5072697;28;20066;-64
2023/12/22 02:53:21;;;;;;;1999.90;999.90;;;;;;;-1.09;86.09;94682.16;5072660;28;20071;-65
2023/12/22 02:55:49;;;;;;;1999.90;999.90;;;;;;;-1.19;86.45;94672.09;5072699;28;20044;-64
2023/12/22 02:58:16;;;;;;;1999.90;999.90;;;;;;;-1.11;86.80;94669.38;5072648;28;20053;-60
2023/12/22 03:00:43;;;;;;;1999.90;999.90;;;;;;;-1.10;87.14;94662.50;5072808;28;20110;-65
2023/12/22 03:03:11;;;;;;;1999.90;999.90;;;;;;;-1.06;87.15;94659.81;5072668;28;20512;-61
2023/12/22 03:05:37;;;;;;;1999.90;999.90;;;;;;;-1.09;86.89;94657.31;5072785;28;20106;-62
2023/12/22 03:08:05;;;;;;;1999.90;999.90;;;;;;;-1.08;86.57;94659.00;5076285;28;20084;-65
2023/12/22 03:10:32;;;;;;;1999.90;999.90;;;;;;;-1.05;86.27;94652.97;5076183;28;20397;-62
2023/12/22 03:13:01;;;;;;;1999.90;999.90;;;;;;;-1.05;86.57;94651.22;5076228;28;20056;-64
2023/12/22 03:15:28;;;;;;;1999.90;999.90;;;;;;;-1.00;86.65;94653.69;5076098;28;20387;-64
2023/12/22 03:17:55;;;;;;;1999.90;999.90;;;;;;;-0.97;86.48;94660.50;5076090;28;20048;-63
2023/12/22 03:20:21;;;;;;;1999.90;999.90;;;;;;;-0.92;86.28;94653.53;5076108;28;20131;-61
2023/12/22 03:22:48;;;;;;;1999.90;999.90;;;;;;;-0.97;85.87;94658.78;5076064;28;20154;-63
2023/12/22 03:25:16;;;;;;;1999.90;999.90;;;;;;;-1.02;85.90;94648.59;5076459;28;20082;-65
2023/12/22 03:27:43;;;;;;;1999.90;999.90;;;;;;;-1.00;85.76;94648.56;5075868;28;20048;-59
2023/12/22 03:30:12;;;;;;;1999.90;999.90;;;;;;;-1.05;85.79;94650.41;5075956;28;20041;-60
2023/12/22 03:32:39;;;;;;;1999.90;999.90;;;;;;;-1.13;85.95;94647.16;5076029;28;20048;-63
2023/12/22 03:35:07;;;;;;;1999.90;999.90;;;;;;;-1.17;86.36;94648.97;5075939;28;20131;-61
2023/12/22 03:37:34;;;;;;;1999.90;999.90;;;;;;;-1.14;86.18;94648.91;5075914;28;20048;-65
2023/12/22 03:40:01;;;;;;;1999.90;999.90;;;;;;;-1.15;86.50;94644.63;5075826;28;20048;-64
2023/12/22 03:42:28;;;;;;;1999.90;999.90;;;;;;;-1.20;87.09;94649.03;5075791;28;20052;-62
2023/12/22 03:44:55;;;;;;;1999.90;999.90;;;;;;;-1.21;87.71;94642.22;5075752;28;20087;-63
2023/12/22 03:47:24;;;;;;;1999.90;999.90;;;;;;;-1.21;87.38;94640.47;5075789;28;20106;-65
2023/12/22 03:49:51;;;;;;;1999.90;999.90;;;;;;;-1.17;87.45;94636.13;5075636;28;20123;-63
2023/12/22 03:52:18;;;;;;;1999.90;999.90;;;;;;;-1.14;88.39;94630.94;5075470;28;20106;-63
2023/12/22 03:54:45;;;;;;;1999.90;999.90;;;;;;;-1.11;88.90;94622.31;5075586;28;20124;-61
2023/12/22 03:57:12;;;;;;;1999.90;999.90;;;;;;;-1.13;89.10;94631.75;5075579;28;20062;-64
2023/12/22 03:59:39;;;;;;;1999.90;999.90;;;;;;;-1.09;89.17;94628.28;5075521;28;20049;-63
2023/12/22 04:02:06;;;;;;;1999.90;999.90;;;;;;;-1.11;89.06;94627.44;5075411;28;20080;-65
2023/12/22 04:04:38;;;;;;;1999.90;999.90;;;;;;;-1.03;89.57;94633.22;5075403;28;20539;-65
2023/12/22 04:07:06;;;;;;;1999.90;999.90;;;;;;;-1.00;89.08;94622.06;5075172;28;20185;-64
2023/12/22 04:09:33;;;;;;;1999.90;999.90;;;;;;;-0.96;89.26;94628.81;5075359;28;20118;-64
2023/12/22 04:12:00;;;;;;;1999.90;999.90;;;;;;;-0.95;89.67;94627.94;5075277;28;20465;-66
2023/12/22 04:14:27;;;;;;;1999.90;999.90;;;;;;;-0.94;89.93;94627.91;5075467;28;20044;-62
2023/12/22 04:16:54;;;;;;;1999.90;999.90;;;;;;;-0.89;89.81;94645.75;5074618;28;20048;-64
2023/12/22 04:19:21;;;;;;;1999.90;999.90;;;;;;;-0.94;89.62;94643.28;5075079;28;20052;-64
2023/12/22 04:21:50;;;;;;;1999.90;999.90;;;;;;;-0.91;89.46;94637.25;5075007;28;20482;-64
2023/12/22 04:24:17;;;;;;;1999.90;999.90;;;;;;;-0.89;89.52;94630.34;5074988;28;20084;-63
2023/12/22 04:26:44;;;;;;;1999.90;999.90;;;;;;;-0.88;89.10;94632.03;5074737;28;20452;-64
2023/12/22 04:29:11;;;;;;;1999.90;999.90;;;;;;;-0.86;89.49;94624.28;5074750;28;20457;-63
2023/12/22 04:31:38;;;;;;;1999.90;999.90;;;;;;;-0.79;88.98;94626.69;5074732;28;20049;-60
2023/12/22 04:34:05;;;;;;;1999.90;999.90;;;;;;;-0.75;88.53;94632.59;5074622;28;20049;-61
2023/12/22 04:36:32;;;;;;;1999.90;999.90;;;;;;;-0.71;88.24;94636.78;5074926;28;20091;-63
2023/12/22 04:39:01;;;;;;;1999.90;999.90;;;;;;;-0.68;88.20;94633.28;5074631;28;20048;-60
2023/12/22 04:41:28;;;;;;;1999.90;999.90;;;;;;;-0.64;87.77;94627.19;5074602;28;20396;-61
2023/12/22 04:43:55;;;;;;;1999.90;999.90;;;;;;;-0.67;87.91;94624.69;5074656;28;20094;-64
2023/12/22 04:46:22;;;;;;;1999.90;999.90;;;;;;;-0.68;88.69;94615.31;5074486;28;20048;-61
2023/12/22 04:48:49;;;;;;;1999.90;999.90;;;;;;;-0.68;89.14;94615.31;5074209;28;20102;-62
2023/12/22 04:51:16;;;;;;;1999.90;999.90;;;;;;;-0.66;89.68;94616.13;5074428;28;20052;-62
2023/12/22 04:53:43;;;;;;;1999.90;999.90;;;;;;;-0.60;89.79;94615.94;5074303;28;20050;-62
2023/12/22 04:56:12;;;;;;;1999.90;999.90;;;;;;;-0.58;89.42;94618.47;5074368;28;20049;-64
2023/12/22 04:58:39;;;;;;;1999.90;999.90;;;;;;;-0.54;89.62;94615.81;5074153;28;20045;-64
2023/12/22 05:01:07;;;;;;;1999.90;999.90;;;;;;;-0.48;89.76;94612.22;5074312;28;20135;-61
2023/12/22 05:03:34;;;;;;;1999.90;999.90;;;;;;;-0.43;90.33;94615.53;5074274;28;20044;-65
2023/12/22 05:06:01;;;;;;;1999.90;999.90;;;;;;;-0.37;90.39;94611.97;5074207;28;20124;-64
2023/12/22 05:08:28;;;;;;;1999.90;999.90;;;;;;;-0.28;90.65;94623.72;5074078;28;20052;-63
2023/12/22 05:10:55;;;;;;;1999.90;999.90;;;;;;;-0.27;90.25;94622.88;5073982;28;20074;-62
2023/12/22 05:13:23;;;;;;;1999.90;999.90;;;;;;;-0.28;90.34;94628.88;5073985;28;20090;-64
2023/12/22 05:15:50;;;;;;;1999.90;999.90;;;;;;;-0.26;90.02;94620.25;5073964;28;20452;-64
2023/12/22 05:18:18;;;;;;;1999.90;999.90;;;;;;;-0.23;89.83;94633.91;5073717;28;20074;-65
2023/12/22 05:20:45;;;;;;;1999.90;999.90;;;;;;;-0.18;89.53;94639.78;5073872;28;20045;-64
2023/12/22 05:23:13;;;;;;;1999.90;999.90;;;;;;;-0.17;89.77;94632.03;5073799;28;20059;-63
2023/12/22 05:25:40;;;;;;;1999.90;999.90;;;;;;;-0.11;89.61;94635.28;5073697;28;20048;-62
2023/12/22 05:28:07;;;;;;;1999.90;999.90;;;;;;;-0.12;89.51;94631.88;5073202;28;20060;-65
2023/12/22 05:30:36;;;;;;;1999.90;999.90;;;;;;;-0.07;89.68;94627.47;5073289;28;20119;-60
2023/12/22 05:33:03;;;;;;;1999.90;999.90;;;;;;;-0.07;90.04;94631.75;5073631;28;20056;-64
2023/12/22 05:35:30;;;;;;;1999.90;999.90;;;;;;;-0.09;90.47;94629.22;5073677;28;20049;-62
2023/12/22 05:37:57;;;;;;;1999.90;999.90;;;;;;;-0.05;91.03;94620.56;5073608;28;20048;-63
2023/12/22 05:40:31;;;;;;;1999.90;999.90;;;;;;;0.04;91.25;94610.91;5073570;28;20136;-61
2023/12/22 05:42:58;;;;;;;1999.90;999.90;;;;;;;0.11;91.05;94599.56;5073302;28;20106;-63
2023/12/22 05:45:25;;;;;;;1999.90;999.90;;;;;;;0.17;90.46;94601.13;5073464;28;20044;-62
2023/12/22 05:47:54;;;;;;;1999.90;999.90;;;;;;;0.14;90.89;94599.47;5073388;28;20055;-61
2023/12/22 05:50:21;;;;;;;1999.90;999.90;;;;;;;0.20;90.54;94601.03;5073234;28;20063;-64
2023/12/22 05:52:48;;;;;;;1999.90;999.90;;;;;;;0.25;90.65;94605.16;5073245;28;20138;-65
2023/12/22 05:55:14;;;;;;;1999.90;999.90;;;;;;;0.31;90.25;94603.31;5073219;28;20131;-63
2023/12/22 05:57:41;;;;;;;1999.90;999.90;;;;;;;0.35;90.34;94604.91;5073132;28;20094;-61
2023/12/22 06:00:11;;;;;;;1999.90;999.90;;;;;;;0.39;89.87;94603.09;5073139;28;20079;-63
2023/12/22 06:02:39;;;;;;;1999.90;999.90;;;;;;;0.33;89.82;94606.69;5073241;28;20052;-63
2023/12/22 06:05:08;;;;;;;1999.90;999.90;;;;;;;0.35;90.08;94603.19;5073025;28;20048;-63
2023/12/22 06:07:35;;;;;;;1999.90;999.90;;;;;;;0.40;90.39;94591.91;5073282;28;20084;-65
2023/12/22 06:10:03;;;;;;;1999.90;999.90;;;;;;;0.43;90.26;94586.66;5073152;28;20131;-61
2023/12/22 06:12:30;;;;;;;1999.90;999.90;;;;;;;0.36;90.91;94586.84;5072974;28;20060;-64
2023/12/22 06:15:05;;;;;;;1999.90;999.90;;;;;;;0.33;91.56;94584.34;5073074;28;20129;-63
2023/12/22 06:17:34;;;;;;;1999.90;999.90;;;;;;;0.42;91.88;94582.44;5072869;28;20049;-60
2023/12/22 06:20:04;;;;;;;1999.90;999.90;;;;;;;0.46;91.57;94581.44;5073013;28;20098;-62
2023/12/22 06:22:33;;;;;;;1999.90;999.90;;;;;;;0.50;91.39;94586.44;5072819;28;20426;-64
2023/12/22 06:25:02;;;;;;;1999.90;999.90;;;;;;;0.58;91.33;94580.22;5072962;28;20076;-63
2023/12/22 06:27:30;;;;;;;1999.90;999.90;;;;;;;0.57;91.68;94583.69;5073110;28;20040;-63
2023/12/22 06:29:57;;;;;;;1999.90;999.90;;;;;;;0.52;92.53;94596.69;5072859;28;20052;-63
2023/12/22 06:32:25;;;;;;;1999.90;999.90;;;;;;;0.56;93.16;94589.72;5072923;28;20048;-62
2023/12/22 06:34:52;;;;;;;1999.90;999.90;;;;;;;0.63;93.55;94599.78;5072691;28;20045;-65
2023/12/22 06:37:20;;;;;;;1999.90;999.90;;;;;;;0.71;93.04;94596.13;5072891;28;20048;-61
2023/12/22 06:39:49;;;;;;;1999.90;999.90;;;;;;;0.72;92.55;94600.41;5073248;28;20060;-65
2023/12/22 06:42:17;;;;;;;1999.90;999.90;;;;;;;0.72;92.21;94605.56;5076800;28;20048;-61
2023/12/22 06:44:44;;;;;;;1999.90;999.90;;;;;;;0.72;91.21;94606.38;5076928;28;20044;-63
2023/12/22 06:47:11;;;;;;;1999.90;999.90;;;;;;;0.75;91.14;94606.28;5076754;28;20486;-65
2023/12/22 06:49:39;;;;;;;1999.90;999.90;;;;;;;0.84;90.50;94604.34;5076629;28;20048;-62
2023/12/22 06:52:06;;;;;;;1999.90;999.90;;;;;;;0.90;89.49;94595.59;5076794;28;20044;-64
2023/12/22 06:54:35;;;;;;;1999.90;999.90;;;;;;;0.91;89.61;94595.53;5076662;28;20048;-63
2023/12/22 06:57:04;;;;;;;1999.90;999.90;;;;;;;0.91;88.98;94599.84;5076442;28;20052;-63
2023/12/22 06:59:31;;;;;;;1999.90;999.90;;;;;;;0.91;89.55;94610.13;5076569;28;20060;-64
2023/12/22 07:01:59;;;;;;;1999.90;999.90;;;;;;;0.96;89.82;94616.81;5076518;28;20102;-63
2023/12/22 07:05:06;;;;;;;1999.90;999.90;;;;;;;1.03;89.42;94614.91;5076508;28;20098;-64
2023/12/22 07:07:33;;;;;;;1999.90;999.90;;;;;;;0.98;89.42;94604.75;5076485;28;20098;-63
2023/12/22 07:10:00;;;;;;;1999.90;999.90;;;;;;;1.05;90.02;94597.66;5076299;28;20050;-61
2023/12/22 07:12:29;;;;;;;1999.90;999.90;;;;;;;1.07;90.04;94602.78;5076418;28;20114;-63
2023/12/22 07:14:56;;;;;;;1999.90;999.90;;;;;;;1.06;90.80;94601.09;5076136;28;20135;-64
2023/12/22 07:17:24;;;;;;;1999.90;999.90;;;;;;;1.12;90.97;94588.03;5076046;28;20099;-63
2023/12/22 07:19:52;;;;;;;1999.90;999.90;;;;;;;1.27;91.27;94586.69;5076267;28;20052;-65
2023/12/22 07:22:19;;;;;;;1999.90;999.90;;;;;;;1.42;91.62;94577.63;5076023;28;20084;-62
2023/12/22 07:24:49;;;;;;;1999.90;999.90;;;;;;;1.54;91.52;94571.22;5075969;28;20487;-63
2023/12/22 07:27:16;;;;;;;1999.90;999.90;;;;;;;1.69;91.29;94575.00;5076102;28;20102;-64
2023/12/22 07:29:44;;;;;;;1999.90;999.90;;;;;;;1.82;90.96;94569.41;5076022;28;20401;-63
2023/12/22 07:32:12;;;;;;;1999.90;999.90;;;;;;;1.92;91.12;94575.91;5076128;28;20084;-64
2023/12/22 07:34:39;;;;;;;1999.90;999.90;;;;;;;2.02;91.25;94564.38;5075847;28;20132;-65
2023/12/22 07:37:06;;;;;;;1999.90;999.90;;;;;;;2.13;91.46;94568.28;5075896;28;20406;-64
2023/12/22 07:39:33;;;;;;;1999.90;999.90;;;;;;;2.26;91.80;94579.03;5075687;28;20044;-63
2023/12/22 07:42:01;;;;;;;1999.90;999.90;;;;;;;2.36;91.42;94570.06;5075867;28;20517;-62
2023/12/22 07:44:28;;;;;;;1999.90;999.90;;;;;;;2.43;91.05;94578.41;5075775;28;20088;-62
2023/12/22 07:47:00;;;;;;;1999.90;999.90;;;;;;;2.51;90.51;94581.56;5075719;28;20080;-65
2023/12/22 07:49:28;;;;;;;1999.90;999.90;;;;;;;2.60;90.45;94593.25;5075624;28;20072;-64
2023/12/22 07:51:55;;;;;;;1999.90;999.90;;;;;;;2.69;90.61;94588.63;5075049;28;20045;-64
2023/12/22 07:54:22;;;;;;;1999.90;999.90;;;;;;;2.79;90.50;94595.13;5075610;28;20059;-64
2023/12/22 07:56:49;;;;;;;1999.90;999.90;;;;;;;2.90;90.13;94589.56;5075439;28;20048;-64
2023/12/22 07:59:17;;;;;;;1999.90;999.90;;;;;;;3.02;89.72;94591.69;5075508;28;20072;-66
2023/12/22 08:01:44;;;;;;;1999.90;999.90;;;;;;;3.13;89.69;94598.97;5075456;28;20102;-64
2023/12/22 08:04:13;;;;;;;1999.90;999.90;;;;;;;3.27;88.52;94607.94;5075255;28;20076;-65
2023/12/22 08:06:41;;;;;;;1999.90;999.90;;;;;;;3.33;87.98;94604.25;5075109;28;20114;-62
2023/12/22 08:09:08;;;;;;;1999.90;999.90;;;;;;;3.37;87.30;94613.59;5075200;28;20052;-64
2023/12/22 08:11:36;;;;;;;1999.90;999.90;;;;;;;3.37;86.97;94613.59;5075162;28;20072;-62
2023/12/22 08:14:04;;;;;;;1999.90;999.90;;;;;;;3.41;87.47;94612.56;5075166;28;20049;-62
2023/12/22 08:16:32;;;;;;;1999.90;999.90;;;;;;;3.46;87.35;94618.34;5074928;28;20045;-66
2023/12/22 08:18:59;;;;;;;1999.90;999.90;;;;;;;3.55;86.70;94622.31;5075119;28;20084;-66
2023/12/22 08:21:28;;;;;;;1999.90;999.90;;;;;;;3.51;86.48;94610.41;5074960;28;20087;-63
2023/12/22 08:23:55;;;;;;;1999.90;999.90;;;;;;;3.58;86.56;94608.44;5074956;28;20470;-63
2023/12/22 08:26:22;;;;;;;1999.90;999.90;;;;;;;3.62;86.13;94610.00;5074962;28;20048;-64
2023/12/22 08:28:49;;;;;;;1999.90;999.90;;;;;;;3.70;85.95;94605.31;5075041;28;20055;-64
2023/12/22 08:31:16;;;;;;;1999.90;999.90;;;;;;;3.74;85.65;94608.63;5074783;28;20107;-65
2023/12/22 08:33:45;;;;;;;1999.90;999.90;;;;;;;3.78;85.49;94613.63;5074790;28;20048;-64
2023/12/22 08:36:12;;;;;;;1999.90;999.90;;;;;;;3.82;85.22;94608.31;5074722;28;20049;-64
2023/12/22 08:38:40;;;;;;;1999.90;999.90;;;;;;;3.88;85.45;94616.66;5074684;28;20056;-62
2023/12/22 08:41:08;;;;;;;1999.90;999.90;;;;;;;3.95;85.66;94609.47;5074987;28;20048;-63
2023/12/22 08:43:35;;;;;;;1999.90;999.90;;;;;;;4.03;86.09;94611.72;5074537;28;20051;-64
2023/12/22 08:46:03;;;;;;;1999.90;999.90;;;;;;;4.02;86.15;94610.91;5074608;28;20131;-65
2023/12/22 08:48:30;;;;;;;1999.90;999.90;;;;;;;4.04;86.41;94605.66;5074485;28;20079;-64
2023/12/22 08:50:57;;;;;;;1999.90;999.90;;;;;;;4.06;85.99;94596.06;5074235;28;20139;-63
2023/12/22 08:53:25;;;;;;;1999.90;999.90;;;;;;;4.08;86.07;94593.41;5074415;28;20053;-60
2023/12/22 08:55:53;;;;;;;1999.90;999.90;;;;;;;4.09;85.57;94593.34;5074480;28;20051;-63
2023/12/22 08:58:21;;;;;;;1999.90;999.90;;;;;;;4.06;84.37;94600.41;5074330;28;20055;-63
2023/12/22 09:00:48;;;;;;;1999.90;999.90;;;;;;;4.04;82.83;94588.38;5074290;28;20040;-64
2023/12/22 09:03:15;;;;;;;1999.90;999.90;;;;;;;4.08;82.54;94603.75;5074115;28;20092;-63
2023/12/22 09:05:42;;;;;;;1999.90;999.90;;;;;;;4.13;81.41;94596.66;5074064;28;20094;-65
2023/12/22 09:08:09;;;;;;;1999.90;999.90;;;;;;;4.19;81.05;94587.78;5074068;28;20056;-64
2023/12/22 09:10:36;;;;;;;1999.90;999.90;;;;;;;4.28;81.46;94588.19;5073950;28;20048;-64
2023/12/22 09:13:05;;;;;;;1999.90;999.90;;;;;;;4.35;80.89;94581.00;5074012;28;20099;-65
2023/12/22 09:15:32;;;;;;;1999.90;999.90;;;;;;;4.41;80.06;94570.38;5073979;28;20154;-65
2023/12/22 09:17:59;;;;;;;1999.90;999.90;;;;;;;4.49;79.22;94572.59;5073713;28;20185;-63
2023/12/22 09:20:26;;;;;;;1999.90;999.90;;;;;;;4.61;79.56;94571.19;5073868;28;20131;-60
2023/12/22 09:22:53;;;;;;;1999.90;999.90;;;;;;;4.74;79.37;94570.66;5073772;28;20119;-66
2023/12/22 09:25:20;;;;;;;1999.90;999.90;;;;;;;4.82;79.50;94563.38;5073569;28;20080;-64
2023/12/22 09:27:47;;;;;;;1999.90;999.90;;;;;;;4.85;79.71;94555.44;5073934;28;20106;-63
2023/12/22 09:30:17;;;;;;;1999.90;999.90;;;;;;;4.91;78.92;94564.69;5073940;28;20055;-65
2023/12/22 09:32:44;;;;;;;1999.90;999.90;;;;;;;4.98;78.59;94565.22;5073764;28;20044;-62
2023/12/22 09:35:11;;;;;;;1999.90;999.90;;;;;;;5.04;79.02;94558.00;5073479;28;20052;-62
2023/12/22 09:37:38;;;;;;;1999.90;999.90;;;;;;;5.11;77.14;94561.13;5073515;28;20052;-64
2023/12/22 09:40:09;;;;;;;1999.90;999.90;;;;;;;5.17;75.98;94555.66;5073598;28;20041;-64
2023/12/22 09:42:41;;;;;;;1999.90;999.90;;;;;;;5.18;72.90;94546.97;5073561;28;20094;-64
2023/12/22 09:45:12;;;;;;;1999.90;999.90;;;;;;;5.21;73.43;94542.56;5073639;28;20127;-65
2023/12/22 09:47:42;;;;;;;1999.90;999.90;;;;;;;5.21;72.92;94542.56;5073349;28;20055;-63
2023/12/22 09:50:10;;;;;;;1999.90;999.90;;;;;;;5.23;72.83;94543.31;5073438;28;20049;-66
2023/12/22 09:52:39;;;;;;;1999.90;999.90;;;;;;;5.21;72.19;94538.19;5073366;28;20110;-63
2023/12/22 09:55:09;;;;;;;1999.90;999.90;;;;;;;5.26;72.20;94527.59;5073411;28;20079;-64
2023/12/22 09:57:38;;;;;;;1999.90;999.90;;;;;;;5.28;71.58;94534.41;5073447;28;20399;-65
2023/12/22 10:00:09;;;;;;;1999.90;999.90;;;;;;;5.35;71.05;94526.31;5073201;28;20052;-64
2023/12/22 10:02:37;;;;;;;1999.90;999.90;;;;;;;5.39;71.44;94525.25;5073187;28;20044;-61
2023/12/22 10:05:07;;;;;;;1999.90;999.90;;;;;;;5.45;70.78;94530.16;5073154;28;20136;-63
2023/12/22 10:07:35;;;;;;;1999.90;999.90;;;;;;;5.48;71.29;94521.38;5073063;28;20048;-62
2023/12/22 10:10:03;;;;;;;1999.90;999.90;;;;;;;5.52;71.47;94520.28;5072980;28;20151;-65
2023/12/22 10:12:31;;;;;;;1999.90;999.90;;;;;;;5.53;72.43;94515.03;5073185;28;20114;-64
2023/12/22 10:15:01;;;;;;;1999.90;999.90;;;;;;;5.55;74.04;94512.38;5072849;28;20052;-64
2023/12/22 10:17:30;;;;;;;1999.90;999.90;;;;;;;5.66;73.78;94519.63;5072877;28;20060;-64
2023/12/22 10:19:57;;;;;;;1999.90;999.90;;;;;;;5.65;74.59;94521.34;5073053;28;20639;-60
2023/12/22 10:22:25;;;;;;;1999.90;999.90;;;;;;;5.72;74.54;94531.44;5073107;28;20045;-60
2023/12/22 10:24:52;;;;;;;1999.90;999.90;;;;;;;5.74;74.72;94534.75;5072929;28;20044;-64
2023/12/22 10:27:22;;;;;;;1999.90;999.90;;;;;;;5.69;74.33;94525.47;5072837;28;20049;-64
2023/12/22 10:29:49;;;;;;;1999.90;999.90;;;;;;;5.69;73.15;94533.25;5072920;28;20048;-62
2023/12/22 10:32:17;;;;;;;1999.90;999.90;;;;;;;5.75;72.56;94537.28;5073041;28;20048;-62
2023/12/22 10:34:44;;;;;;;1999.90;999.90;;;;;;;5.79;72.45;94525.84;5072784;28;20547;-62
2023/12/22 10:37:12;;;;;;;1999.90;999.90;;;;;;;5.84;72.60;94522.19;5072858;28;20048;-62
2023/12/22 10:39:41;;;;;;;1999.90;999.90;;;;;;;5.86;72.16;94525.50;5072853;28;20049;-64
2023/12/22 10:42:10;;;;;;;1999.90;999.90;;;;;;;5.89;72.53;94527.94;5072728;28;20048;-64
2023/12/22 10:44:41;;;;;;;1999.90;999.90;;;;;;;5.96;71.99;94524.13;5072825;28;20053;-61
2023/12/22 10:47:09;;;;;;;1999.90;999.90;;;;;;;5.96;71.78;94528.47;5072690;28;20048;-65
2023/12/22 10:49:38;;;;;;;1999.90;999.90;;;;;;;6.03;71.39;94520.31;5072800;28;20226;-64
2023/12/22 10:52:05;;;;;;;1999.90;999.90;;;;;;;6.05;71.08;94505.50;5072812;28;20052;-64
2023/12/22 10:54:32;;;;;;;1999.90;999.90;;;;;;;6.00;71.06;94499.69;5072989;28;20148;-63
2023/12/22 10:57:01;;;;;;;1999.90;999.90;;;;;;;6.04;70.73;94492.59;5072919;28;20402;-64
2023/12/22 10:59:30;;;;;;;1999.90;999.90;;;;;;;6.09;70.85;94479.38;5072660;28;20167;-64